LETO METAR and TAF | Updated Today

LETO METAR

Torrejón Airport

Observation time: 14 min. ago

LETO 200700Z 05004KT 010V080 CAVOK 19/09 Q1024 NOSIG

Need help? Read our tutorial on how to read METARs or read the parsed version below.

Torrejón Airport (LETO) METAR

  • Weather conditions on Fri, 20 May 2022 07:00:00 +0000 (14 min. ago):
  • Present conditions: Dry
  • Clouds: Clear skies
  • Visibility: Greater than 10 km
  • Wind: 50 degrees at 4 knots
  • Temperature: 19 celsius
  • Dew point: 9 celsius
  • Pressure: 1024 millibars
  • Remarks: None


Useful to know...

LETO TAF

Torrejón Airport

TAF LETO 200500Z 2006/2106 12010KT 9999 FEW045 TX36/2015Z TN16/2006Z PROB40 TEMPO 2011/2106 06010KT
Observation time: 2:14 hr. ago
Need help? Read our tutorial on how to read TAFs or read the parsed version below.

Parsed version of TAF for Torrejón Airport (LETO)

  • From 20 May at 06:00 UTC, to day 21 of the month at 06:00 UTC
  • Clouds: A few at 1372 meters
  • Visibility: Greater than 10 km
  • Wind: 120 degrees at 10
  • Expected to arise temporarily, from 20 May at 11:00 UTC, to day 21 of the month at 06:00 UTC
    Probability of 40%
  • Wind: 60 degrees at 10